Time;durP1;ratioP1;P1;durP2;ratioP2;P2;SDS_P1;SDS_P2;PMS_P1;PMS_P2;Temp;Humidity;BMP_temperature;BMP_pressure;BME280_temperature;BME280_humidity;BME280_pressure;Samples;Min_cycle;Max_cycle;Signal;HPM_P1;HPM_P2
2022/06/27 00:02:20;;;;;;;1.60;1.50;;;25.70;28.30;;;;;;10430070;28;20233;-73
2022/06/27 00:07:24;;;;;;;1.27;1.27;;;25.70;28.60;;;;;;10427342;28;20239;-73
2022/06/27 00:12:27;;;;;;;1.50;1.40;;;25.70;28.50;;;;;;10433769;28;20681;-72
2022/06/27 00:17:31;;;;;;;1.50;1.40;;;25.60;28.50;;;;;;10422139;28;20272;-73
2022/06/27 00:22:35;;;;;;;1.40;1.30;;;25.60;29.00;;;;;;10429394;28;20276;-73
2022/06/27 00:27:39;;;;;;;1.90;1.70;;;25.50;28.90;;;;;;10426723;28;20229;-72
2022/06/27 00:32:43;;;;;;;2.17;1.70;;;25.50;28.90;;;;;;10419393;28;20231;-72
2022/06/27 00:37:47;;;;;;;1.63;1.53;;;25.40;28.90;;;;;;10421397;28;20267;-72
2022/06/27 00:42:50;;;;;;;1.87;1.77;;;25.40;28.90;;;;;;10424036;28;20228;-72
2022/06/27 00:47:55;;;;;;;1.70;1.60;;;25.40;28.90;;;;;;10425767;28;20237;-72
2022/06/27 00:52:58;;;;;;;1.70;1.60;;;25.30;29.20;;;;;;10434773;28;20226;-72
2022/06/27 00:58:02;;;;;;;1.70;1.60;;;25.20;28.90;;;;;;10426767;28;20225;-73
2022/06/27 01:03:07;;;;;;;1.70;1.60;;;25.10;29.40;;;;;;10426323;28;20221;-72
2022/06/27 01:08:10;;;;;;;2.00;1.70;;;25.10;29.80;;;;;;10424485;28;20235;-73
2022/06/27 01:13:14;;;;;;;1.80;1.50;;;25.00;29.60;;;;;;10436661;28;20698;-72
2022/06/27 01:18:19;;;;;;;1.90;1.80;;;24.90;29.90;;;;;;10431675;28;20235;-72
2022/06/27 01:23:23;;;;;;;1.73;1.63;;;24.80;30.40;;;;;;10431750;28;20236;-72
2022/06/27 01:28:27;;;;;;;2.80;1.83;;;24.80;30.20;;;;;;10426166;28;20238;-72
2022/06/27 01:33:30;;;;;;;2.33;1.57;;;24.70;30.00;;;;;;10433114;28;20941;-72
2022/06/27 01:38:35;;;;;;;2.13;1.77;;;24.70;30.20;;;;;;10432695;28;20256;-72
2022/06/27 01:43:38;;;;;;;2.13;1.60;;;24.60;30.70;;;;;;10436072;28;20228;-72
2022/06/27 01:48:41;;;;;;;2.73;1.70;;;24.60;30.30;;;;;;10436728;28;20332;-72
2022/06/27 01:53:46;;;;;;;1.70;1.60;;;24.50;30.30;;;;;;10424623;28;20244;-72
2022/06/27 01:58:52;;;;;;;3.10;1.90;;;24.50;31.00;;;;;;10433934;28;20244;-72
2022/06/27 02:03:56;;;;;;;2.47;2.10;;;24.40;30.80;;;;;;10426051;28;20225;-72
2022/06/27 02:09:04;;;;;;;2.17;2.00;;;24.40;31.20;;;;;;10429342;28;20268;-72
2022/06/27 02:14:08;;;;;;;2.67;1.90;;;24.30;32.10;;;;;;10428884;28;20225;-72
2022/06/27 02:19:12;;;;;;;2.43;2.20;;;24.30;31.20;;;;;;10423300;28;20229;-72
2022/06/27 02:24:17;;;;;;;2.17;2.00;;;24.20;31.50;;;;;;10426698;28;20232;-72
2022/06/27 02:29:20;;;;;;;3.53;2.50;;;24.20;32.00;;;;;;10428579;28;20725;-73
2022/06/27 02:34:23;;;;;;;3.67;2.20;;;24.10;31.80;;;;;;10426202;28;20229;-72
2022/06/27 02:39:31;;;;;;;5.53;2.00;;;23.90;31.90;;;;;;10424379;28;20237;-72
2022/06/27 02:44:35;;;;;;;2.30;2.03;;;23.70;33.20;;;;;;10427993;28;20776;-72
2022/06/27 02:49:39;;;;;;;1.70;1.60;;;23.50;32.80;;;;;;10435579;28;20233;-72
2022/06/27 02:54:48;;;;;;;1.63;1.53;;;23.40;32.90;;;;;;10426646;28;20225;-72
2022/06/27 02:59:56;;;;;;;1.80;1.70;;;23.40;34.10;;;;;;10426196;28;20229;-72
2022/06/27 03:04:59;;;;;;;1.67;1.60;;;23.40;33.30;;;;;;10431415;28;20225;-73
2022/06/27 03:10:04;;;;;;;1.90;1.80;;;23.40;33.00;;;;;;10429761;28;20225;-72
2022/06/27 03:15:09;;;;;;;1.50;1.40;;;23.40;33.40;;;;;;10420791;28;20254;-72
2022/06/27 03:20:13;;;;;;;1.70;1.60;;;23.50;33.20;;;;;;10424689;28;20253;-72
2022/06/27 03:25:18;;;;;;;2.83;1.80;;;23.50;33.00;;;;;;10428675;28;20228;-72
2022/06/27 03:30:21;;;;;;;2.10;2.00;;;23.60;33.40;;;;;;10419686;28;20228;-72
2022/06/27 03:35:24;;;;;;;1.90;1.60;;;23.60;33.10;;;;;;10433019;28;20719;-72
2022/06/27 03:40:28;;;;;;;2.30;2.10;;;23.60;33.40;;;;;;10435595;28;20235;-73
2022/06/27 03:45:32;;;;;;;1.50;1.50;;;23.60;33.80;;;;;;10431947;28;20232;-72
2022/06/27 03:50:36;;;;;;;1.80;1.67;;;23.70;33.50;;;;;;10422450;28;20224;-73
2022/06/27 03:55:41;;;;;;;1.80;1.70;;;23.70;33.80;;;;;;10429155;28;20237;-72
2022/06/27 04:00:44;;;;;;;1.60;1.50;;;23.70;34.40;;;;;;10434294;28;20626;-72
2022/06/27 04:05:48;;;;;;;1.80;1.53;;;23.70;34.00;;;;;;10428054;28;20232;-72
2022/06/27 04:10:52;;;;;;;2.03;1.93;;;23.70;34.20;;;;;;10428171;28;20232;-72
2022/06/27 04:15:55;;;;;;;3.30;1.70;;;23.70;34.80;;;;;;10430667;28;20242;-72
2022/06/27 04:20:59;;;;;;;1.70;1.60;;;23.70;34.40;;;;;;10431353;28;20294;-73
2022/06/27 04:26:05;;;;;;;2.20;1.90;;;23.80;34.70;;;;;;10438690;28;20316;-72
2022/06/27 04:31:10;;;;;;;1.97;1.87;;;23.90;35.40;;;;;;10431142;28;20674;-72
2022/06/27 04:36:14;;;;;;;1.80;1.70;;;23.90;34.70;;;;;;10441041;28;20312;-72
2022/06/27 04:41:20;;;;;;;1.80;1.70;;;24.00;35.00;;;;;;10437846;28;20232;-72
2022/06/27 04:46:23;;;;;;;2.30;1.70;;;24.10;35.40;;;;;;10444196;28;20316;-72
2022/06/27 04:51:26;;;;;;;2.70;1.97;;;24.10;35.10;;;;;;10437323;28;20236;-72
2022/06/27 04:56:31;;;;;;;1.80;1.70;;;24.20;35.00;;;;;;10441126;28;20287;-72
2022/06/27 05:01:35;;;;;;;2.20;2.10;;;24.20;35.50;;;;;;10443492;28;20225;-72
2022/06/27 05:06:38;;;;;;;2.20;2.00;;;24.30;35.50;;;;;;10443155;28;20294;-72
2022/06/27 05:11:44;;;;;;;2.37;2.17;;;24.30;35.50;;;;;;10439729;28;20227;-72
2022/06/27 05:16:48;;;;;;;3.80;2.03;;;24.40;36.20;;;;;;10436401;28;20229;-72
2022/06/27 05:21:51;;;;;;;2.00;1.90;;;24.40;35.50;;;;;;10434626;28;20715;-73
2022/06/27 05:26:56;;;;;;;2.87;2.00;;;24.50;35.50;;;;;;10430973;28;20241;-73
2022/06/27 05:31:59;;;;;;;2.40;2.10;;;24.60;35.90;;;;;;10433031;28;20236;-73
2022/06/27 05:37:05;;;;;;;2.27;2.10;;;24.70;35.60;;;;;;10431636;28;20309;-73
2022/06/27 05:42:09;;;;;;;4.03;1.90;;;24.70;36.20;;;;;;10436069;28;20232;-73
2022/06/27 05:47:13;;;;;;;2.20;2.00;;;24.80;36.10;;;;;;10436408;28;20320;-73
2022/06/27 05:52:16;;;;;;;2.20;2.10;;;24.80;35.70;;;;;;10432150;28;20221;-73
2022/06/27 05:57:20;;;;;;;2.37;1.97;;;24.90;35.70;;;;;;10428920;28;20563;-73
2022/06/27 06:02:25;;;;;;;2.27;2.00;;;24.90;35.60;;;;;;10427467;28;20230;-73
2022/06/27 06:07:29;;;;;;;2.43;2.27;;;25.00;35.70;;;;;;10432982;28;20236;-73
2022/06/27 06:12:34;;;;;;;2.30;1.93;;;25.10;35.70;;;;;;10433103;28;20224;-73
2022/06/27 06:17:37;;;;;;;2.30;2.20;;;25.20;35.90;;;;;;10429862;28;20586;-73
2022/06/27 06:22:45;;;;;;;2.10;2.00;;;25.30;35.50;;;;;;10430492;28;20225;-73
2022/06/27 06:27:49;;;;;;;2.20;2.03;;;25.40;35.30;;;;;;10430549;28;20254;-73
2022/06/27 06:32:55;;;;;;;2.63;2.10;;;25.50;35.30;;;;;;10431627;28;20228;-73
2022/06/27 06:37:58;;;;;;;2.00;1.87;;;25.60;35.30;;;;;;10428024;28;20754;-73
2022/06/27 06:43:04;;;;;;;2.20;2.00;;;25.70;35.00;;;;;;10430723;28;20231;-73
2022/06/27 06:48:08;;;;;;;2.10;2.00;;;25.90;35.60;;;;;;10426715;28;20236;-73
2022/06/27 06:53:11;;;;;;;2.20;2.10;;;26.00;35.20;;;;;;10428400;28;20600;-73
2022/06/27 06:58:17;;;;;;;3.70;2.30;;;26.20;35.10;;;;;;10431821;28;20316;-73
2022/06/27 07:03:22;;;;;;;2.10;2.00;;;26.30;34.90;;;;;;10428122;28;20611;-73
2022/06/27 07:08:25;;;;;;;2.67;2.47;;;26.40;35.00;;;;;;10428803;28;20232;-73
2022/06/27 07:13:30;;;;;;;2.70;2.50;;;26.50;34.30;;;;;;10431299;28;20232;-73
2022/06/27 07:18:34;;;;;;;2.43;2.33;;;26.70;34.30;;;;;;10426480;28;20709;-73
2022/06/27 07:23:38;;;;;;;2.83;2.63;;;26.80;34.10;;;;;;10427356;28;20279;-74
2022/06/27 07:28:43;;;;;;;4.17;2.40;;;27.00;34.00;;;;;;10421173;28;20225;-73
2022/06/27 07:33:48;;;;;;;3.63;2.57;;;27.10;33.70;;;;;;10417136;28;20275;-74
2022/06/27 07:38:52;;;;;;;2.53;2.43;;;27.30;34.00;;;;;;10424070;28;21858;-75
2022/06/27 07:43:57;;;;;;;2.57;2.47;;;27.50;33.60;;;;;;10422098;28;20632;-75
2022/06/27 07:49:01;;;;;;;2.90;2.70;;;27.60;33.20;;;;;;10424161;28;20229;-75
2022/06/27 07:54:04;;;;;;;2.80;2.50;;;27.80;33.40;;;;;;10420536;28;20232;-75
2022/06/27 07:59:10;;;;;;;2.70;2.50;;;28.00;33.30;;;;;;10422883;28;20729;-75
2022/06/27 08:04:14;;;;;;;3.00;2.70;;;28.10;32.80;;;;;;10425053;28;20229;-75
2022/06/27 08:09:21;;;;;;;3.03;2.40;;;28.20;32.50;;;;;;10433064;28;20314;-74
2022/06/27 08:14:26;;;;;;;2.60;2.50;;;28.40;32.40;;;;;;10433358;28;20224;-75
2022/06/27 08:19:30;;;;;;;2.73;2.50;;;28.60;32.10;;;;;;10432732;28;20232;-74
2022/06/27 08:24:33;;;;;;;3.17;2.67;;;28.70;32.00;;;;;;10434814;28;20225;-75
2022/06/27 08:29:38;;;;;;;2.63;2.50;;;28.90;31.70;;;;;;10434584;28;20229;-75
2022/06/27 08:34:47;;;;;;;3.70;2.80;;;29.00;30.90;;;;;;10433691;28;20236;-74
2022/06/27 08:39:50;;;;;;;2.73;2.60;;;29.10;32.00;;;;;;10435656;28;20221;-74
2022/06/27 08:44:55;;;;;;;2.70;2.50;;;29.20;31.10;;;;;;10424804;28;20714;-75
2022/06/27 08:49:59;;;;;;;3.03;2.43;;;29.30;31.10;;;;;;10429774;28;20236;-74
2022/06/27 08:55:02;;;;;;;3.10;2.90;;;29.40;31.10;;;;;;10421991;28;20225;-74
2022/06/27 09:00:09;;;;;;;2.50;2.40;;;29.60;31.30;;;;;;10426389;28;20225;-74
2022/06/27 09:05:23;;;;;;;2.57;2.47;;;29.90;31.50;;;;;;10425807;28;20235;-75
2022/06/27 09:10:30;;;;;;;2.80;2.70;;;30.10;30.80;;;;;;10422143;28;20227;-75
2022/06/27 09:15:53;;;;;;;3.00;2.80;;;30.40;30.80;;;;;;10429080;28;20657;-75
2022/06/27 09:20:59;;;;;;;2.53;2.43;;;30.70;30.40;;;;;;10420506;28;20220;-75
2022/06/27 09:26:04;;;;;;;2.87;2.73;;;30.90;30.30;;;;;;10422405;28;20697;-75
2022/06/27 09:31:12;;;;;;;2.73;2.57;;;31.10;30.30;;;;;;10421658;28;20780;-75
2022/06/27 09:36:16;;;;;;;2.70;2.50;;;31.30;29.60;;;;;;10418019;28;20228;-75
2022/06/27 09:41:22;;;;;;;3.50;3.20;;;31.50;29.80;;;;;;10428120;28;20221;-75
2022/06/27 09:46:29;;;;;;;3.10;2.90;;;31.60;29.60;;;;;;10418351;28;20233;-75
2022/06/27 09:51:35;;;;;;;2.77;2.57;;;31.70;29.20;;;;;;10425841;28;20713;-74
2022/06/27 09:56:42;;;;;;;2.50;2.40;;;31.70;29.20;;;;;;10423465;28;20252;-75
2022/06/27 10:01:49;;;;;;;3.30;3.00;;;31.80;28.60;;;;;;10419500;28;20220;-75
2022/06/27 10:06:53;;;;;;;2.57;2.40;;;31.90;28.90;;;;;;10424038;28;20232;-75
2022/06/27 10:12:22;;;;;;;2.77;2.57;;;31.90;28.20;;;;;;10413844;28;20324;-74
2022/06/27 10:17:30;;;;;;;2.80;2.60;;;31.90;27.60;;;;;;10418073;28;20233;-74
2022/06/27 10:22:33;;;;;;;2.90;2.20;;;31.90;27.70;;;;;;10429840;28;20225;-73
2022/06/27 10:27:38;;;;;;;2.30;2.20;;;31.90;28.40;;;;;;10423590;28;20621;-74
2022/06/27 10:32:46;;;;;;;3.00;2.50;;;32.10;28.50;;;;;;10423239;28;20894;-74
2022/06/27 10:37:50;;;;;;;2.60;2.50;;;32.10;27.50;;;;;;10416411;28;20234;-73
2022/06/27 10:42:54;;;;;;;2.60;2.40;;;32.20;27.90;;;;;;10425536;28;20332;-74
2022/06/27 10:48:01;;;;;;;2.90;2.60;;;32.20;28.00;;;;;;10418010;28;21023;-73
2022/06/27 10:53:24;;;;;;;2.50;2.40;;;32.30;27.40;;;;;;10424888;28;20221;-74
2022/06/27 10:58:30;;;;;;;2.37;2.27;;;32.30;27.40;;;;;;10419221;28;20240;-73
2022/06/27 11:03:40;;;;;;;2.30;2.20;;;32.30;26.80;;;;;;10425143;28;20235;-74
2022/06/27 11:08:46;;;;;;;2.50;2.40;;;32.30;26.30;;;;;;10425830;28;20221;-74
2022/06/27 11:13:57;;;;;;;2.40;2.20;;;32.40;27.00;;;;;;10419306;28;20720;-74
2022/06/27 11:20:04;;;;;;;2.00;1.90;;;32.50;26.90;;;;;;10422340;28;20232;-74
2022/06/27 11:24:27;;;;;;;2.10;2.00;;;32.60;26.80;;;;;;10414375;28;20724;-76
2022/06/27 11:34:54;;;;;;;2.07;1.90;;;32.90;25.90;;;;;;10432550;28;20243;-76
2022/06/27 11:39:59;;;;;;;2.10;1.90;;;33.00;24.50;;;;;;10425019;28;20705;-76
2022/06/27 11:45:06;;;;;;;3.30;2.33;;;33.10;24.60;;;;;;10426745;28;20248;-76
2022/06/27 11:50:13;;;;;;;2.20;2.00;;;33.20;23.90;;;;;;10426357;28;20235;-76
2022/06/27 11:55:18;;;;;;;1.97;1.87;;;33.30;24.30;;;;;;10422536;28;20225;-75
2022/06/27 12:00:23;;;;;;;2.30;1.90;;;33.40;25.00;;;;;;10428135;28;20240;-75
2022/06/27 12:05:28;;;;;;;1.97;1.87;;;33.40;24.00;;;;;;10422881;28;20489;-75
2022/06/27 12:10:39;;;;;;;2.00;1.90;;;33.50;24.20;;;;;;10431317;28;20261;-76
2022/06/27 12:15:44;;;;;;;1.90;1.80;;;33.50;24.20;;;;;;10413215;28;21804;-75
2022/06/27 12:20:49;;;;;;;1.90;1.80;;;33.40;24.10;;;;;;10407883;28;20225;-76
2022/06/27 12:25:52;;;;;;;1.80;1.70;;;33.40;24.20;;;;;;10411041;28;20234;-75
2022/06/27 12:30:56;;;;;;;1.90;1.80;;;33.40;24.40;;;;;;10414187;28;20612;-76
2022/06/27 12:36:00;;;;;;;3.17;1.90;;;33.40;24.40;;;;;;10422281;28;20248;-76
2022/06/27 12:41:14;;;;;;;2.23;1.93;;;33.50;24.40;;;;;;10412719;28;20249;-74
2022/06/27 12:46:18;;;;;;;2.00;1.90;;;33.50;23.60;;;;;;10407798;28;21094;-74
2022/06/27 12:51:24;;;;;;;2.00;1.90;;;33.50;24.00;;;;;;10424637;28;20315;-74
2022/06/27 12:56:28;;;;;;;2.00;1.90;;;33.50;23.80;;;;;;10428718;28;20229;-75
2022/06/27 13:01:32;;;;;;;2.93;1.90;;;33.50;24.60;;;;;;10437465;28;20709;-75
2022/06/27 13:06:37;;;;;;;1.83;1.73;;;33.60;25.20;;;;;;10437929;28;20312;-75
2022/06/27 13:11:40;;;;;;;1.93;1.70;;;33.50;26.00;;;;;;10433142;28;20225;-74
2022/06/27 13:16:43;;;;;;;2.27;2.10;;;33.50;25.30;;;;;;10432894;28;20232;-73
2022/06/27 13:21:48;;;;;;;2.80;2.60;;;33.50;24.80;;;;;;10427713;28;20237;-73
2022/06/27 13:26:51;;;;;;;5.10;2.53;;;33.30;24.50;;;;;;10428137;28;20343;-73
2022/06/27 13:31:55;;;;;;;2.00;1.90;;;33.10;24.50;;;;;;10431904;28;20228;-72
2022/06/27 13:37:00;;;;;;;2.30;2.10;;;32.80;24.80;;;;;;10427127;28;20225;-72
2022/06/27 13:42:04;;;;;;;2.33;2.13;;;32.70;25.00;;;;;;10427495;28;20220;-72
2022/06/27 13:47:08;;;;;;;2.00;1.90;;;32.50;25.10;;;;;;10430821;28;20233;-72
2022/06/27 13:52:14;;;;;;;4.30;2.03;;;32.40;25.30;;;;;;10430453;28;20248;-71
2022/06/27 13:57:17;;;;;;;1.90;1.80;;;32.30;25.20;;;;;;10423576;28;20221;-72
2022/06/27 14:02:25;;;;;;;1.80;1.70;;;32.30;25.40;;;;;;10427115;28;20776;-72
2022/06/27 14:07:39;;;;;;;1.87;1.50;;;32.20;25.20;;;;;;10424097;28;22257;-71
2022/06/27 14:12:43;;;;;;;2.53;1.60;;;32.10;25.30;;;;;;10427296;28;20666;-71
2022/06/27 14:17:55;;;;;;;1.73;1.63;;;31.90;25.50;;;;;;10429859;28;20222;-71
2022/06/27 14:23:00;;;;;;;2.73;1.53;;;31.80;25.50;;;;;;10429187;28;20225;-71
2022/06/27 14:28:04;;;;;;;1.60;1.50;;;31.70;25.70;;;;;;10426898;28;20682;-71
2022/06/27 14:33:07;;;;;;;2.27;1.53;;;31.70;25.70;;;;;;10429379;28;20596;-71
2022/06/27 14:38:28;;;;;;;1.73;1.60;;;31.60;25.50;;;;;;10430729;28;20235;-71
2022/06/27 14:43:31;;;;;;;2.17;1.60;;;31.50;25.70;;;;;;10427327;28;20230;-71
2022/06/27 14:48:35;;;;;;;2.33;1.70;;;31.40;26.20;;;;;;10425553;28;20232;-71
2022/06/27 14:53:39;;;;;;;2.20;1.57;;;31.30;25.90;;;;;;10426797;28;20721;-71
2022/06/27 14:58:42;;;;;;;2.03;1.60;;;31.10;25.90;;;;;;10428700;28;20233;-71
2022/06/27 15:03:46;;;;;;;2.27;1.80;;;31.00;26.00;;;;;;10429908;28;20220;-72
2022/06/27 15:08:50;;;;;;;2.73;1.67;;;30.90;26.10;;;;;;10426021;28;20255;-72
2022/06/27 15:13:54;;;;;;;1.97;1.80;;;30.90;26.20;;;;;;10426650;28;20305;-72
2022/06/27 15:18:57;;;;;;;2.47;1.90;;;30.90;26.00;;;;;;10428385;28;20240;-72
2022/06/27 15:24:02;;;;;;;2.00;1.90;;;30.70;26.00;;;;;;10426437;28;20229;-71
2022/06/27 15:29:05;;;;;;;2.10;1.93;;;30.60;25.90;;;;;;10429876;28;20748;-72
2022/06/27 15:34:09;;;;;;;2.00;1.90;;;30.50;26.10;;;;;;10418149;28;20236;-72
2022/06/27 15:39:14;;;;;;;2.47;2.20;;;30.40;26.30;;;;;;10411740;28;20251;-72
2022/06/27 15:44:17;;;;;;;3.00;2.10;;;30.30;26.30;;;;;;10417148;28;20312;-71
2022/06/27 15:49:21;;;;;;;2.20;2.10;;;30.20;26.30;;;;;;10417916;28;20220;-72
2022/06/27 15:54:25;;;;;;;2.50;2.30;;;30.10;26.40;;;;;;10414980;28;20235;-72
2022/06/27 15:59:29;;;;;;;2.33;2.13;;;30.00;26.60;;;;;;10418363;28;20233;-74
2022/06/27 16:04:32;;;;;;;2.20;2.00;;;29.90;26.70;;;;;;10419172;28;20229;-74
2022/06/27 16:09:36;;;;;;;2.07;1.97;;;29.90;26.90;;;;;;10417645;28;20689;-74
2022/06/27 16:14:40;;;;;;;2.30;2.10;;;29.90;27.00;;;;;;10424126;28;20274;-74
2022/06/27 16:19:43;;;;;;;2.20;2.10;;;29.90;26.90;;;;;;10419631;28;20229;-74
2022/06/27 16:25:08;;;;;;;2.30;2.10;;;29.90;26.80;;;;;;10424701;28;20585;-74
2022/06/27 16:31:39;;;;;;;2.83;2.30;;;29.80;26.60;;;;;;10429352;28;20229;-74
2022/06/27 16:35:38;;;;;;;2.00;1.90;;;29.80;26.80;;;;;;10425279;28;21186;-73
2022/06/27 16:40:43;;;;;;;2.27;1.93;;;29.80;26.70;;;;;;10429638;28;20229;-73
2022/06/27 16:45:50;;;;;;;1.90;1.80;;;29.70;26.70;;;;;;10427331;28;20237;-73
2022/06/27 16:51:00;;;;;;;3.40;1.80;;;29.70;26.90;;;;;;10426403;28;20249;-72
2022/06/27 16:56:07;;;;;;;2.10;2.00;;;29.70;26.80;;;;;;10431054;28;20247;-72
2022/06/27 17:01:14;;;;;;;2.70;2.07;;;29.70;26.70;;;;;;10430887;28;20213;-73
2022/06/27 17:06:17;;;;;;;2.20;2.00;;;29.70;26.60;;;;;;10429985;28;20749;-74
2022/06/27 17:11:22;;;;;;;2.30;2.10;;;29.70;26.70;;;;;;10434261;28;20268;-74
2022/06/27 17:16:25;;;;;;;2.10;1.73;;;29.60;26.60;;;;;;10429866;28;20229;-74
2022/06/27 17:21:29;;;;;;;2.10;1.90;;;29.60;26.70;;;;;;10433775;28;20232;-74
2022/06/27 17:26:33;;;;;;;1.80;1.70;;;29.70;26.50;;;;;;10428827;28;20231;-73
2022/06/27 17:31:37;;;;;;;2.10;2.00;;;29.70;26.30;;;;;;10434023;28;21244;-74
2022/06/27 17:36:40;;;;;;;2.00;1.87;;;29.60;26.40;;;;;;10432862;28;20232;-74
2022/06/27 17:41:45;;;;;;;1.87;1.60;;;29.60;26.50;;;;;;10434830;28;20252;-74
2022/06/27 17:46:49;;;;;;;3.63;2.10;;;29.40;26.70;;;;;;10433920;28;20234;-74
2022/06/27 17:51:52;;;;;;;1.80;1.70;;;29.30;26.90;;;;;;10433147;28;20303;-74
2022/06/27 17:56:57;;;;;;;1.80;1.70;;;29.20;26.90;;;;;;10433554;28;20241;-74
2022/06/27 18:02:00;;;;;;;5.90;1.80;;;29.00;27.10;;;;;;10435800;28;20229;-74
2022/06/27 18:07:12;;;;;;;2.27;1.77;;;28.90;27.30;;;;;;10433069;28;20224;-74
2022/06/27 18:12:17;;;;;;;1.60;1.50;;;28.70;27.40;;;;;;10438289;28;20628;-74
2022/06/27 18:17:20;;;;;;;2.67;1.73;;;28.50;27.50;;;;;;10429669;28;20221;-73
2022/06/27 18:22:24;;;;;;;1.97;1.87;;;28.40;27.70;;;;;;10427740;28;21031;-74
2022/06/27 18:27:28;;;;;;;1.70;1.60;;;28.30;27.80;;;;;;10434101;28;20271;-73
2022/06/27 18:32:32;;;;;;;2.57;1.77;;;28.10;27.90;;;;;;10432400;28;20229;-71
2022/06/27 18:37:41;;;;;;;1.77;1.67;;;27.90;28.10;;;;;;10427406;28;20253;-71
2022/06/27 18:42:52;;;;;;;1.70;1.60;;;27.80;28.40;;;;;;10425908;28;20982;-73
2022/06/27 18:47:56;;;;;;;2.63;1.70;;;27.60;29.00;;;;;;10425912;28;20597;-72
2022/06/27 18:52:59;;;;;;;3.20;1.80;;;27.40;28.80;;;;;;10427819;28;20235;-72
2022/06/27 18:58:04;;;;;;;2.00;1.80;;;27.20;29.00;;;;;;10425064;28;20232;-72
2022/06/27 19:03:08;;;;;;;1.97;1.87;;;26.90;29.70;;;;;;10426693;28;20229;-71
2022/06/27 19:08:11;;;;;;;2.70;2.17;;;26.80;29.60;;;;;;10424851;28;20229;-72
2022/06/27 19:13:15;;;;;;;2.40;2.20;;;26.70;29.60;;;;;;10425921;28;21061;-71
2022/06/27 19:18:21;;;;;;;2.20;2.10;;;26.50;30.60;;;;;;10429570;28;20237;-72
2022/06/27 19:23:25;;;;;;;3.47;2.60;;;26.20;30.80;;;;;;10427355;28;20990;-72
2022/06/27 19:28:30;;;;;;;3.00;2.50;;;26.00;31.50;;;;;;10426970;28;20225;-71
2022/06/27 19:33:33;;;;;;;2.57;2.37;;;25.80;32.90;;;;;;10427691;28;20240;-72
2022/06/27 19:38:37;;;;;;;4.70;2.27;;;25.60;32.40;;;;;;10432053;28;20233;-75
2022/06/27 19:43:41;;;;;;;2.73;2.53;;;25.40;33.10;;;;;;10430425;28;20229;-71
2022/06/27 19:48:45;;;;;;;4.77;3.27;;;25.30;33.60;;;;;;10426507;28;20591;-73
2022/06/27 19:53:48;;;;;;;6.03;3.00;;;24.90;34.10;;;;;;10432238;28;20225;-74
2022/06/27 19:58:53;;;;;;;4.73;2.83;;;24.70;34.50;;;;;;10433232;28;20620;-74
2022/06/27 20:03:57;;;;;;;3.73;3.00;;;24.50;35.80;;;;;;10429093;28;20232;-73
2022/06/27 20:09:01;;;;;;;2.90;2.70;;;24.50;35.00;;;;;;10426204;28;21040;-73
2022/06/27 20:14:05;;;;;;;3.50;3.17;;;24.50;35.20;;;;;;10431825;28;20608;-72
2022/06/27 20:19:11;;;;;;;3.63;2.93;;;24.50;36.10;;;;;;10429905;28;20871;-73
2022/06/27 20:24:14;;;;;;;2.90;2.70;;;24.50;35.20;;;;;;10428402;28;20768;-71
2022/06/27 20:29:19;;;;;;;3.33;3.03;;;24.40;35.40;;;;;;10425751;28;20255;-71
2022/06/27 20:34:23;;;;;;;4.43;3.40;;;24.30;37.20;;;;;;10425802;28;20232;-72
2022/06/27 20:39:26;;;;;;;3.40;3.10;;;24.20;36.00;;;;;;10430869;28;20606;-72
2022/06/27 20:44:31;;;;;;;3.20;2.90;;;24.10;35.90;;;;;;10426911;28;20217;-72
2022/06/27 20:49:35;;;;;;;3.10;2.80;;;24.10;36.70;;;;;;10426401;28;20236;-72
2022/06/27 20:54:39;;;;;;;4.70;3.00;;;24.00;36.20;;;;;;10425538;28;20236;-72
2022/06/27 20:59:44;;;;;;;4.77;3.50;;;24.00;36.50;;;;;;10424879;28;20222;-71
2022/06/27 21:04:48;;;;;;;3.60;3.30;;;23.80;37.40;;;;;;10425175;28;20736;-72
2022/06/27 21:15:13;;;;;;;3.80;3.50;;;23.50;36.90;;;;;;10430290;28;20217;-72
2022/06/27 21:20:17;;;;;;;4.60;4.20;;;23.40;37.70;;;;;;10434143;28;20221;-73
2022/06/27 21:25:20;;;;;;;3.90;3.60;;;23.20;37.50;;;;;;10438892;28;20243;-72
2022/06/27 21:30:26;;;;;;;3.73;3.47;;;23.10;38.00;;;;;;10437362;28;20253;-72
2022/06/27 21:35:30;;;;;;;3.40;3.20;;;22.90;39.10;;;;;;10428162;28;20319;-72
2022/06/27 21:40:33;;;;;;;3.63;3.30;;;22.70;38.40;;;;;;10445357;28;20229;-72
2022/06/27 21:45:39;;;;;;;3.67;3.37;;;22.50;38.70;;;;;;10439549;28;20235;-71
2022/06/27 21:50:44;;;;;;;3.27;2.97;;;22.50;38.80;;;;;;10431135;28;20225;-72
2022/06/27 21:55:48;;;;;;;3.20;2.90;;;22.30;38.50;;;;;;10433446;28;20229;-71
2022/06/27 22:00:52;;;;;;;3.10;2.90;;;22.30;38.50;;;;;;10428097;28;20225;-71
2022/06/27 22:05:56;;;;;;;3.23;2.93;;;22.20;39.10;;;;;;10410092;28;20739;-72
2022/06/27 22:10:59;;;;;;;2.97;2.77;;;22.20;38.40;;;;;;10430722;28;20890;-72
2022/06/27 22:16:05;;;;;;;3.20;3.00;;;22.30;38.50;;;;;;10419681;28;20238;-72
2022/06/27 22:21:08;;;;;;;3.73;3.03;;;22.40;39.90;;;;;;10425534;28;20236;-72
2022/06/27 22:26:11;;;;;;;3.43;3.13;;;22.50;38.80;;;;;;10430326;28;20237;-71
2022/06/27 22:31:16;;;;;;;3.20;2.90;;;22.60;38.80;;;;;;10444339;28;20237;-71
2022/06/27 22:36:19;;;;;;;4.10;2.50;;;22.60;39.10;;;;;;10437403;28;20233;-72
2022/06/27 22:41:22;;;;;;;3.07;2.80;;;22.60;38.80;;;;;;10440303;28;20229;-71
2022/06/27 22:46:27;;;;;;;3.50;3.10;;;22.50;38.70;;;;;;10421451;28;20248;-73
2022/06/27 22:51:30;;;;;;;3.37;3.07;;;22.20;39.30;;;;;;10435946;28;20767;-72
2022/06/27 22:56:33;;;;;;;3.03;2.83;;;22.00;39.20;;;;;;10424955;28;20602;-72
2022/06/27 23:01:38;;;;;;;3.20;2.90;;;21.90;39.50;;;;;;10425504;28;20243;-72
2022/06/27 23:06:41;;;;;;;3.17;2.97;;;21.90;40.60;;;;;;10439440;28;20225;-72
2022/06/27 23:11:45;;;;;;;3.00;2.80;;;22.00;40.20;;;;;;10440797;28;20744;-72
2022/06/27 23:16:49;;;;;;;3.03;2.83;;;22.10;39.90;;;;;;10421413;28;20241;-72
2022/06/27 23:21:53;;;;;;;2.63;2.30;;;22.20;40.70;;;;;;10430692;28;20229;-72
2022/06/27 23:26:57;;;;;;;3.40;3.10;;;22.20;39.60;;;;;;10437024;28;20251;-72
2022/06/27 23:32:02;;;;;;;3.33;3.13;;;22.30;39.80;;;;;;10405256;28;20641;-72
2022/06/27 23:37:06;;;;;;;3.10;2.70;;;22.30;40.50;;;;;;10405474;28;20245;-72
2022/06/27 23:42:09;;;;;;;3.03;2.70;;;22.40;39.80;;;;;;10404759;28;20237;-73
2022/06/27 23:47:15;;;;;;;3.20;2.83;;;22.50;39.70;;;;;;10403006;28;20649;-72
2022/06/27 23:52:18;;;;;;;3.10;2.90;;;22.50;40.20;;;;;;10432576;28;20228;-72
2022/06/27 23:57:21;;;;;;;5.73;3.50;;;22.60;39.50;;;;;;10438094;28;20593;-72
